Time;durP1;ratioP1;P1;durP2;ratioP2;P2;SDS_P1;SDS_P2;PMS_P1;PMS_P2;Temp;Humidity;BMP_temperature;BMP_pressure;BME280_temperature;BME280_humidity;BME280_pressure;Samples;Min_cycle;Max_cycle;Signal;HPM_P1;HPM_P2
2022/01/04 00:01:23;;;;;;;;;;;7.20;99.90;;;;;;5082292;28;20027;-81
2022/01/04 00:03:49;;;;;;;;;;;7.00;99.90;;;;;;5082574;28;19927;-81
2022/01/04 00:06:15;;;;;;;;;;;6.90;99.90;;;;;;5082061;28;19943;-81
2022/01/04 00:08:40;;;;;;;;;;;7.10;99.90;;;;;;5083455;28;19966;-86
2022/01/04 00:11:09;;;;;;;;;;;7.10;99.90;;;;;;5082106;28;19927;-81
2022/01/04 00:13:35;;;;;;;;;;;7.10;99.90;;;;;;5083995;28;20367;-81
2022/01/04 00:16:03;;;;;;;;;;;7.10;99.90;;;;;;5081965;28;19920;-82
2022/01/04 00:18:28;;;;;;;;;;;7.20;99.90;;;;;;5083241;28;19995;-81
2022/01/04 00:20:54;;;;;;;;;;;7.20;99.90;;;;;;5082337;28;20009;-82
2022/01/04 00:23:20;;;;;;;;;;;7.30;99.90;;;;;;5084177;28;19924;-82
2022/01/04 00:25:46;;;;;;;;;;;7.30;99.90;;;;;;5083269;28;20359;-81
2022/01/04 00:28:11;;;;;;;;;;;7.30;99.90;;;;;;5099351;28;19923;-81
2022/01/04 00:30:37;;;;;;;;;;;7.30;99.90;;;;;;5081746;28;19928;-81
2022/01/04 00:33:03;;;;;;;;;;;7.40;99.90;;;;;;5099379;28;19920;-81
2022/01/04 00:35:29;;;;;;;;;;;7.30;99.90;;;;;;5082754;28;20324;-81
2022/01/04 00:37:55;;;;;;;;;;;7.40;99.90;;;;;;5082492;28;19959;-87
2022/01/04 00:40:21;;;;;;;;;;;7.40;99.90;;;;;;5082841;28;20001;-81
2022/01/04 00:42:46;;;;;;;;;;;7.40;99.90;;;;;;5083617;28;19928;-86
2022/01/04 00:45:12;;;;;;;;;;;7.30;99.90;;;;;;5083687;28;19921;-81
2022/01/04 00:50:30;;;;;;;;;;;7.40;99.90;;;;;;5075136;28;19927;-81
2022/01/04 00:52:57;;;;;;;;;;;7.40;99.90;;;;;;5098531;28;19921;-87
2022/01/04 00:55:22;;;;;;;;;;;7.40;99.90;;;;;;5081688;28;20040;-81
2022/01/04 00:57:48;;;;;;;;;;;7.40;99.90;;;;;;5082201;28;20464;-82
2022/01/04 01:00:15;;;;;;;;;;;7.40;99.90;;;;;;5099628;28;20325;-81
2022/01/04 01:02:41;;;;;;;;;;;7.50;99.90;;;;;;5081995;28;19992;-81
2022/01/04 01:05:07;;;;;;;;;;;7.40;99.90;;;;;;5080479;28;20446;-81
2022/01/04 01:07:33;;;;;;;;;;;7.50;99.90;;;;;;5081925;28;19935;-81
2022/01/04 01:12:37;;;;;;;;;;;7.50;99.90;;;;;;5097586;28;20422;-81
2022/01/04 01:15:03;;;;;;;;;;;7.60;99.90;;;;;;5097737;28;19959;-81
2022/01/04 01:17:30;;;;;;;;;;;7.50;99.90;;;;;;5080754;28;19985;-81
2022/01/04 01:19:56;;;;;;;;;;;7.50;99.90;;;;;;5062811;28;19965;-86
2022/01/04 01:22:22;;;;;;;;;;;7.50;99.90;;;;;;5086505;28;20266;-81
2022/01/04 01:24:47;;;;;;;;;;;7.50;99.90;;;;;;5088039;28;19924;-81
2022/01/04 01:27:13;;;;;;;;;;;7.60;99.90;;;;;;5083734;28;19927;-81
2022/01/04 01:29:38;;;;;;;;;;;7.50;99.90;;;;;;5080382;28;19927;-81
2022/01/04 01:32:04;;;;;;;;;;;7.50;99.90;;;;;;5080991;28;19920;-81
2022/01/04 01:34:29;;;;;;;;;;;7.50;99.90;;;;;;5082502;28;19921;-81
2022/01/04 01:36:55;;;;;;;;;;;7.50;99.90;;;;;;5080094;28;19921;-87
2022/01/04 01:39:20;;;;;;;;;;;7.60;99.90;;;;;;5081086;28;19927;-82
2022/01/04 01:41:46;;;;;;;;;;;7.50;99.90;;;;;;5082091;28;19924;-87
2022/01/04 01:44:11;;;;;;;;;;;7.50;99.90;;;;;;5079844;28;19990;-81
2022/01/04 01:46:37;;;;;;;;;;;7.50;99.90;;;;;;5081358;28;19920;-81
2022/01/04 01:49:02;;;;;;;;;;;7.80;99.90;;;;;;5081108;28;19920;-81
2022/01/04 01:51:28;;;;;;;;;;;7.60;99.90;;;;;;5081567;28;19920;-82
2022/01/04 01:53:54;;;;;;;;;;;7.50;99.90;;;;;;5081062;28;19931;-87
2022/01/04 01:56:20;;;;;;;;;;;7.60;99.90;;;;;;5081319;28;19920;-82
2022/01/04 01:58:45;;;;;;;;;;;7.60;99.90;;;;;;5082482;28;19927;-86
2022/01/04 02:01:11;;;;;;;;;;;7.60;99.90;;;;;;5081717;28;19920;-81
2022/01/04 02:03:38;;;;;;;;;;;7.60;99.90;;;;;;5079439;28;19924;-81
2022/01/04 02:06:03;;;;;;;;;;;7.60;99.90;;;;;;5081705;28;19971;-81
2022/01/04 02:08:29;;;;;;;;;;;7.60;99.90;;;;;;5079823;28;19927;-81
2022/01/04 02:10:56;;;;;;;;;;;7.60;99.90;;;;;;5081171;28;19927;-86
2022/01/04 02:13:21;;;;;;;;;;;7.50;99.90;;;;;;5095973;28;19927;-81
2022/01/04 02:15:47;;;;;;;;;;;7.50;99.90;;;;;;5080528;28;19975;-85
2022/01/04 02:18:12;;;;;;;;;;;7.50;99.90;;;;;;5079254;28;19927;-81
2022/01/04 02:20:38;;;;;;;;;;;7.50;99.90;;;;;;5081105;28;19920;-81
2022/01/04 02:23:04;;;;;;;;;;;7.60;99.90;;;;;;5078372;28;19924;-81
2022/01/04 02:25:29;;;;;;;;;;;7.50;99.90;;;;;;5079561;28;20420;-81
2022/01/04 02:27:55;;;;;;;;;;;7.60;99.90;;;;;;5080327;28;20398;-87
2022/01/04 02:30:20;;;;;;;;;;;7.60;99.90;;;;;;5081000;28;19920;-81
2022/01/04 02:32:47;;;;;;;;;;;7.60;99.90;;;;;;5079698;28;20054;-86
2022/01/04 02:35:13;;;;;;;;;;;7.60;99.90;;;;;;5078959;28;19920;-81
2022/01/04 02:37:39;;;;;;;;;;;7.60;99.90;;;;;;5079771;28;19924;-81
2022/01/04 02:40:05;;;;;;;;;;;7.60;99.90;;;;;;5079730;28;20278;-81
2022/01/04 02:42:30;;;;;;;;;;;7.60;99.90;;;;;;5079593;28;19924;-81
2022/01/04 02:44:58;;;;;;;;;;;7.60;99.90;;;;;;5081659;28;19966;-86
2022/01/04 02:47:23;;;;;;;;;;;7.60;99.90;;;;;;5080429;28;20401;-81
2022/01/04 02:49:49;;;;;;;;;;;7.80;99.90;;;;;;5080810;28;19952;-81
2022/01/04 02:52:14;;;;;;;;;;;7.50;99.90;;;;;;5080377;28;19920;-81
2022/01/04 02:54:40;;;;;;;;;;;7.50;99.90;;;;;;5079272;28;19924;-82
2022/01/04 02:57:05;;;;;;;;;;;7.50;99.90;;;;;;5080037;28;19974;-81
2022/01/04 02:59:31;;;;;;;;;;;7.50;99.90;;;;;;5080980;28;20329;-81
2022/01/04 03:01:56;;;;;;;;;;;7.40;99.90;;;;;;5078633;28;20011;-86
2022/01/04 03:04:22;;;;;;;;;;;7.40;99.90;;;;;;5061753;28;19921;-81
2022/01/04 03:06:48;;;;;;;;;;;7.40;99.90;;;;;;5079731;28;19978;-81
2022/01/04 03:09:13;;;;;;;;;;;7.40;99.90;;;;;;5079541;28;19983;-81
2022/01/04 03:11:39;;;;;;;;;;;7.30;99.90;;;;;;5080515;28;19924;-81
2022/01/04 03:14:04;;;;;;;;;;;7.30;99.90;;;;;;5078404;28;20036;-81
2022/01/04 03:16:30;;;;;;;;;;;7.30;99.90;;;;;;5080604;28;19927;-81
2022/01/04 03:21:21;;;;;;;;;;;7.30;99.90;;;;;;5081212;28;19928;-82
2022/01/04 03:23:47;;;;;;;;;;;7.30;99.90;;;;;;5079627;28;19969;-86
2022/01/04 03:26:12;;;;;;;;;;;7.50;99.90;;;;;;5082239;28;19965;-81
2022/01/04 03:28:40;;;;;;;;;;;7.40;99.90;;;;;;5083953;28;19920;-81
2022/01/04 03:31:06;;;;;;;;;;;7.40;99.90;;;;;;5083247;28;19920;-81
2022/01/04 03:33:32;;;;;;;;;;;7.40;99.90;;;;;;5085599;28;20374;-81
2022/01/04 03:35:57;;;;;;;;;;;7.50;99.90;;;;;;5083867;28;19975;-81
2022/01/04 03:38:23;;;;;;;;;;;7.50;99.90;;;;;;5083501;28;20336;-86
2022/01/04 03:40:48;;;;;;;;;;;7.50;99.90;;;;;;5084252;28;19983;-82
2022/01/04 03:43:14;;;;;;;;;;;7.50;99.90;;;;;;5083944;28;20026;-81
2022/01/04 03:45:39;;;;;;;;;;;7.60;99.90;;;;;;5082742;28;19973;-81
2022/01/04 03:48:05;;;;;;;;;;;7.50;99.90;;;;;;5083692;28;19959;-81
2022/01/04 03:50:30;;;;;;;;;;;7.60;99.90;;;;;;5065425;28;19995;-81
2022/01/04 03:52:56;;;;;;;;;;;7.60;99.90;;;;;;5083527;28;19920;-82
2022/01/04 03:55:21;;;;;;;;;;;7.60;99.90;;;;;;5084382;28;20307;-82
2022/01/04 03:57:47;;;;;;;;;;;7.50;99.90;;;;;;5084295;28;20260;-82
2022/01/04 04:00:12;;;;;;;;;;;7.50;99.90;;;;;;5084379;28;19921;-81
2022/01/04 04:02:38;;;;;;;;;;;7.60;99.90;;;;;;5099840;28;19920;-81
2022/01/04 04:05:05;;;;;;;;;;;7.60;99.90;;;;;;5081002;28;19920;-81
2022/01/04 04:07:30;;;;;;;;;;;7.60;99.90;;;;;;5082468;28;19920;-81
2022/01/04 04:09:56;;;;;;;;;;;7.60;99.90;;;;;;5082921;28;19931;-81
2022/01/04 04:12:23;;;;;;;;;;;7.60;99.90;;;;;;5082898;28;19920;-81
2022/01/04 04:14:48;;;;;;;;;;;7.70;99.90;;;;;;5082255;28;19916;-82
2022/01/04 04:17:14;;;;;;;;;;;7.60;99.90;;;;;;5082016;28;20272;-81
2022/01/04 04:19:39;;;;;;;;;;;7.60;99.90;;;;;;5082809;28;20041;-86
2022/01/04 04:22:05;;;;;;;;;;;7.60;99.90;;;;;;5082490;28;19977;-81
2022/01/04 04:24:30;;;;;;;;;;;7.70;99.90;;;;;;5081033;28;19920;-86
2022/01/04 04:26:56;;;;;;;;;;;7.60;99.90;;;;;;5082648;28;19920;-87
2022/01/04 04:29:21;;;;;;;;;;;7.70;99.90;;;;;;5083983;28;19920;-81
2022/01/04 04:31:47;;;;;;;;;;;7.60;99.90;;;;;;5082842;28;20386;-81
2022/01/04 04:34:12;;;;;;;;;;;7.60;99.90;;;;;;5081060;28;19924;-81
2022/01/04 04:36:38;;;;;;;;;;;7.60;99.90;;;;;;5083292;28;20271;-81
2022/01/04 04:39:03;;;;;;;;;;;7.60;99.90;;;;;;5083211;28;19920;-81
2022/01/04 04:41:29;;;;;;;;;;;7.60;99.90;;;;;;5080645;28;19928;-81
2022/01/04 04:43:54;;;;;;;;;;;7.60;99.90;;;;;;5082850;28;20436;-86
2022/01/04 04:46:20;;;;;;;;;;;7.60;99.90;;;;;;5080871;28;19920;-81
2022/01/04 04:48:46;;;;;;;;;;;7.60;99.90;;;;;;5082730;28;19920;-86
2022/01/04 04:51:12;;;;;;;;;;;7.50;99.90;;;;;;5081034;28;19970;-81
2022/01/04 04:53:37;;;;;;;;;;;7.50;99.90;;;;;;5080106;28;19920;-81
2022/01/04 04:56:03;;;;;;;;;;;7.60;99.90;;;;;;5082920;28;19928;-81
2022/01/04 04:58:29;;;;;;;;;;;7.60;99.90;;;;;;5083179;28;19920;-81
2022/01/04 05:00:54;;;;;;;;;;;7.60;99.90;;;;;;5080211;28;19920;-86
2022/01/04 05:03:20;;;;;;;;;;;7.60;99.90;;;;;;5082105;28;19921;-81
2022/01/04 05:05:45;;;;;;;;;;;7.60;99.90;;;;;;5081585;28;19960;-86
2022/01/04 05:08:11;;;;;;;;;;;7.60;99.90;;;;;;5083746;28;19920;-81
2022/01/04 05:10:36;;;;;;;;;;;7.70;99.90;;;;;;5085036;28;19932;-81
2022/01/04 05:13:02;;;;;;;;;;;7.50;99.90;;;;;;5082709;28;19924;-81
2022/01/04 05:15:27;;;;;;;;;;;7.50;99.90;;;;;;5080951;28;19927;-81
2022/01/04 05:17:53;;;;;;;;;;;7.50;99.90;;;;;;5079440;28;19925;-86
2022/01/04 05:20:19;;;;;;;;;;;7.40;99.90;;;;;;5079595;28;19930;-81
2022/01/04 05:22:44;;;;;;;;;;;7.40;99.90;;;;;;5081059;28;19963;-81
2022/01/04 05:25:10;;;;;;;;;;;7.40;99.90;;;;;;5080788;28;20398;-81
2022/01/04 05:27:36;;;;;;;;;;;7.30;99.90;;;;;;5081566;28;19920;-81
2022/01/04 05:30:01;;;;;;;;;;;7.40;99.90;;;;;;5081108;28;19974;-81
2022/01/04 05:32:27;;;;;;;;;;;7.30;99.90;;;;;;5082294;28;19962;-81
2022/01/04 05:34:52;;;;;;;;;;;7.30;99.90;;;;;;5080196;28;19965;-85
2022/01/04 05:37:18;;;;;;;;;;;7.30;99.90;;;;;;5081314;28;19927;-82
2022/01/04 05:39:43;;;;;;;;;;;7.40;99.90;;;;;;5081909;28;19921;-84
2022/01/04 05:42:09;;;;;;;;;;;7.40;99.90;;;;;;5080896;28;19955;-81
2022/01/04 05:44:35;;;;;;;;;;;7.40;99.90;;;;;;5079532;28;19920;-81
2022/01/04 05:47:01;;;;;;;;;;;7.40;99.90;;;;;;5081564;28;19920;-81
2022/01/04 05:49:26;;;;;;;;;;;7.40;99.90;;;;;;5079723;28;19966;-81
2022/01/04 05:51:52;;;;;;;;;;;7.40;99.90;;;;;;5081663;28;20399;-86
2022/01/04 05:54:17;;;;;;;;;;;7.40;99.90;;;;;;5080344;28;19978;-82
2022/01/04 05:56:43;;;;;;;;;;;7.50;99.90;;;;;;5080852;28;19916;-85
2022/01/04 05:59:08;;;;;;;;;;;7.60;99.90;;;;;;5080882;28;19927;-81
2022/01/04 06:01:34;;;;;;;;;;;7.60;99.90;;;;;;5079919;28;19923;-86
2022/01/04 06:03:59;;;;;;;;;;;7.40;99.90;;;;;;5079700;28;20328;-81
2022/01/04 06:06:25;;;;;;;;;;;7.40;99.90;;;;;;5078841;28;20003;-81
2022/01/04 06:08:51;;;;;;;;;;;7.40;99.90;;;;;;5078180;28;20337;-81
2022/01/04 06:17:02;;;;;;;;;;;7.40;99.90;;;;;;5041515;28;19920;-81
2022/01/04 06:19:28;;;;;;;;;;;7.40;99.90;;;;;;5042499;28;19920;-81
2022/01/04 06:21:53;;;;;;;;;;;7.40;99.90;;;;;;5041313;28;19920;-86
2022/01/04 06:24:19;;;;;;;;;;;7.40;99.90;;;;;;5041750;28;19921;-81
2022/01/04 06:26:45;;;;;;;;;;;7.40;99.90;;;;;;5057998;28;19943;-86
2022/01/04 06:29:11;;;;;;;;;;;7.50;99.90;;;;;;5058039;28;19944;-81
2022/01/04 06:31:38;;;;;;;;;;;7.40;99.90;;;;;;5042025;28;19924;-81
2022/01/04 06:34:04;;;;;;;;;;;7.40;99.90;;;;;;5040620;28;19921;-81
2022/01/04 06:36:29;;;;;;;;;;;7.40;99.90;;;;;;5058270;28;19959;-81
2022/01/04 06:38:55;;;;;;;;;;;7.40;99.90;;;;;;5040320;28;19921;-81
2022/01/04 06:41:21;;;;;;;;;;;7.60;99.90;;;;;;5057812;28;19928;-86
2022/01/04 06:43:47;;;;;;;;;;;7.40;99.90;;;;;;5057947;28;19931;-82
2022/01/04 06:46:13;;;;;;;;;;;7.40;99.90;;;;;;5040528;28;19920;-81
2022/01/04 06:48:40;;;;;;;;;;;7.40;99.90;;;;;;5065918;28;19943;-81
2022/01/04 06:51:05;;;;;;;;;;;7.40;99.90;;;;;;5080361;28;20349;-81
2022/01/04 06:53:31;;;;;;;;;;;7.40;99.90;;;;;;5078810;28;19959;-81
2022/01/04 06:55:57;;;;;;;;;;;7.40;99.90;;;;;;5078772;28;20023;-84
2022/01/04 06:58:22;;;;;;;;;;;7.40;99.90;;;;;;5080609;28;19920;-81
2022/01/04 07:00:48;;;;;;;;;;;7.40;99.90;;;;;;5080107;28;19920;-81
2022/01/04 07:03:13;;;;;;;;;;;7.40;99.90;;;;;;5080015;28;19943;-81
2022/01/04 07:05:39;;;;;;;;;;;7.40;99.90;;;;;;5079530;28;19920;-81
2022/01/04 07:08:04;;;;;;;;;;;7.50;99.90;;;;;;5079180;28;19927;-81
2022/01/04 07:10:30;;;;;;;;;;;7.40;99.90;;;;;;5080069;28;20454;-81
2022/01/04 07:12:55;;;;;;;;;;;7.40;99.90;;;;;;5079468;28;19920;-82
2022/01/04 07:15:21;;;;;;;;;;;7.40;99.90;;;;;;5081053;28;20329;-81
2022/01/04 07:17:47;;;;;;;;;;;7.40;99.90;;;;;;5080956;28;19974;-85
2022/01/04 07:20:12;;;;;;;;;;;7.40;99.90;;;;;;5095442;28;19927;-81
2022/01/04 07:22:38;;;;;;;;;;;7.40;99.90;;;;;;5078596;28;20046;-81
2022/01/04 07:25:04;;;;;;;;;;;7.40;99.90;;;;;;5078432;28;20286;-81
2022/01/04 07:27:30;;;;;;;;;;;7.50;99.90;;;;;;5078787;28;19928;-81
2022/01/04 07:29:55;;;;;;;;;;;7.40;99.90;;;;;;5080010;28;19920;-86
2022/01/04 07:32:21;;;;;;;;;;;7.40;99.90;;;;;;5078773;28;19921;-81
2022/01/04 07:34:46;;;;;;;;;;;7.50;99.90;;;;;;5080135;28;19946;-86
2022/01/04 07:37:13;;;;;;;;;;;7.40;99.90;;;;;;5078314;28;19974;-85
2022/01/04 07:39:39;;;;;;;;;;;7.40;99.90;;;;;;5080994;28;20435;-84
2022/01/04 07:42:04;;;;;;;;;;;7.40;99.90;;;;;;5080866;28;19920;-81
2022/01/04 07:44:30;;;;;;;;;;;7.40;99.90;;;;;;5078794;28;19976;-81
2022/01/04 07:46:55;;;;;;;;;;;7.40;99.90;;;;;;5077842;28;19920;-85
2022/01/04 07:49:21;;;;;;;;;;;7.30;99.90;;;;;;5077638;28;19916;-88
2022/01/04 07:51:47;;;;;;;;;;;7.40;99.90;;;;;;5079107;28;20307;-86
2022/01/04 07:54:12;;;;;;;;;;;7.20;99.90;;;;;;5081326;28;19920;-83
2022/01/04 07:56:41;;;;;;;;;;;7.20;99.90;;;;;;5073638;28;19956;-84
2022/01/04 07:59:06;;;;;;;;;;;7.20;99.90;;;;;;5074673;28;19920;-81
2022/01/04 08:01:32;;;;;;;;;;;7.10;99.90;;;;;;5081035;28;19916;-82
2022/01/04 08:03:59;;;;;;;;;;;7.10;99.90;;;;;;5081573;28;19927;-84
2022/01/04 08:06:24;;;;;;;;;;;7.10;99.90;;;;;;5081882;28;19926;-81
2022/01/04 08:08:50;;;;;;;;;;;7.10;99.90;;;;;;5077620;28;19916;-81
2022/01/04 08:11:15;;;;;;;;;;;7.00;99.90;;;;;;5078936;28;19920;-81
2022/01/04 08:13:41;;;;;;;;;;;7.00;99.90;;;;;;5082021;28;19939;-88
2022/01/04 08:16:06;;;;;;;;;;;7.00;99.90;;;;;;5083904;28;19925;-81
2022/01/04 08:18:32;;;;;;;;;;;7.00;99.90;;;;;;5098961;28;20007;-81
2022/01/04 08:20:58;;;;;;;;;;;7.00;99.90;;;;;;5082796;28;19924;-82
2022/01/04 08:23:24;;;;;;;;;;;7.00;99.90;;;;;;5081325;28;19935;-81
2022/01/04 08:25:50;;;;;;;;;;;6.90;99.90;;;;;;5081113;28;19920;-81
2022/01/04 08:28:15;;;;;;;;;;;6.90;99.90;;;;;;5081666;28;19920;-81
2022/01/04 08:30:42;;;;;;;;;;;6.90;99.90;;;;;;5082098;28;20282;-81
2022/01/04 08:33:09;;;;;;;;;;;6.90;99.90;;;;;;5082414;28;19965;-81
2022/01/04 08:35:34;;;;;;;;;;;6.90;99.90;;;;;;5081313;28;19920;-81
2022/01/04 08:38:00;;;;;;;;;;;6.90;99.90;;;;;;5080527;28;19920;-81
2022/01/04 08:40:26;;;;;;;;;;;7.00;99.90;;;;;;5081370;28;20421;-81
2022/01/04 08:42:51;;;;;;;;;;;6.90;99.90;;;;;;5083556;28;19920;-87
2022/01/04 08:45:17;;;;;;;;;;;7.00;99.90;;;;;;5083447;28;20355;-83
2022/01/04 08:47:43;;;;;;;;;;;6.90;99.90;;;;;;5081367;28;19942;-88
2022/01/04 08:50:10;;;;;;;;;;;6.90;99.90;;;;;;5082422;28;20337;-80
2022/01/04 08:52:36;;;;;;;;;;;6.90;99.90;;;;;;5081973;28;19920;-81
2022/01/04 08:55:02;;;;;;;;;;;6.90;99.90;;;;;;5081585;28;19921;-81
2022/01/04 08:57:29;;;;;;;;;;;6.90;99.90;;;;;;5084829;28;19992;-81
2022/01/04 08:59:55;;;;;;;;;;;6.90;99.90;;;;;;5083498;28;19942;-88
2022/01/04 09:02:21;;;;;;;;;;;6.90;99.90;;;;;;5085808;28;19920;-81
2022/01/04 09:04:46;;;;;;;;;;;7.00;99.90;;;;;;5082127;28;20011;-81
2022/01/04 09:07:13;;;;;;;;;;;7.00;99.90;;;;;;5086994;28;19905;-82
2022/01/04 09:09:39;;;;;;;;;;;7.00;99.90;;;;;;5083735;28;19979;-81
2022/01/04 09:12:05;;;;;;;;;;;7.00;99.90;;;;;;5080314;28;20013;-81
2022/01/04 09:14:43;;;;;;;;;;;7.10;99.90;;;;;;5081627;28;20028;-81
2022/01/04 09:19:53;;;;;;;;;;;7.10;99.90;;;;;;5082400;28;19924;-88
2022/01/04 09:22:18;;;;;;;;;;;7.10;99.90;;;;;;5081875;28;19939;-82
2022/01/04 09:24:44;;;;;;;;;;;7.10;99.90;;;;;;5080126;28;20015;-81
2022/01/04 09:27:10;;;;;;;;;;;7.10;99.90;;;;;;5081944;28;19927;-81
2022/01/04 09:29:35;;;;;;;;;;;7.10;99.90;;;;;;5082869;28;20290;-81
2022/01/04 09:32:02;;;;;;;;;;;6.90;99.90;;;;;;5080431;28;19974;-83
2022/01/04 09:34:27;;;;;;;;;;;6.90;99.90;;;;;;5080165;28;19946;-88
2022/01/04 09:36:53;;;;;;;;;;;7.20;99.90;;;;;;5083431;28;20430;-88
2022/01/04 09:39:21;;;;;;;;;;;6.70;99.90;;;;;;5084672;28;19921;-82
2022/01/04 09:41:47;;;;;;;;;;;6.70;99.90;;;;;;5083539;28;19920;-82
2022/01/04 09:44:13;;;;;;;;;;;6.70;99.90;;;;;;5084049;28;19927;-81
2022/01/04 09:46:39;;;;;;;;;;;6.70;99.90;;;;;;5081993;28;19920;-82
2022/01/04 09:49:05;;;;;;;;;;;6.60;99.90;;;;;;5082701;28;19927;-82
2022/01/04 09:51:31;;;;;;;;;;;6.60;99.90;;;;;;5064102;28;19920;-81
2022/01/04 09:53:57;;;;;;;;;;;6.50;99.90;;;;;;5081453;28;19927;-88
2022/01/04 09:56:22;;;;;;;;;;;6.50;99.90;;;;;;5080447;28;19916;-88
2022/01/04 09:58:48;;;;;;;;;;;6.50;99.90;;;;;;5081347;28;19950;-82
2022/01/04 10:01:17;;;;;;;;;;;6.50;99.90;;;;;;5079989;28;19920;-81
2022/01/04 10:03:43;;;;;;;;;;;6.40;99.90;;;;;;5080873;28;19920;-88
2022/01/04 10:06:19;;;;;;;;;;;6.40;99.90;;;;;;5082362;28;19927;-81
2022/01/04 10:08:52;;;;;;;;;;;6.40;99.90;;;;;;5082278;28;19916;-89
2022/01/04 10:11:27;;;;;;;;;;;6.40;99.90;;;;;;5083144;28;19930;-83
2022/01/04 10:13:53;;;;;;;;;;;6.40;99.90;;;;;;5083065;28;19939;-88
2022/01/04 10:16:18;;;;;;;;;;;6.40;99.90;;;;;;5083786;28;20394;-82
2022/01/04 10:18:46;;;;;;;;;;;6.30;99.90;;;;;;5080413;28;19916;-88
2022/01/04 10:21:13;;;;;;;;;;;6.60;99.90;;;;;;5083305;28;20382;-81
2022/01/04 10:23:43;;;;;;;;;;;6.30;99.90;;;;;;5081574;28;19921;-82
2022/01/04 10:26:08;;;;;;;;;;;6.20;99.90;;;;;;5081876;28;19927;-82
2022/01/04 10:28:36;;;;;;;;;;;6.20;99.90;;;;;;5082279;28;20002;-81
2022/01/04 10:31:03;;;;;;;;;;;6.10;99.90;;;;;;5077803;28;19924;-82
2022/01/04 10:33:31;;;;;;;;;;;6.10;99.90;;;;;;5080620;28;19920;-81
2022/01/04 10:35:58;;;;;;;;;;;6.10;99.90;;;;;;5077425;28;19924;-82
2022/01/04 10:38:23;;;;;;;;;;;5.90;99.90;;;;;;5061113;28;19942;-82
2022/01/04 10:40:50;;;;;;;;;;;5.80;99.90;;;;;;5077858;28;19924;-82
2022/01/04 10:43:21;;;;;;;;;;;5.80;99.90;;;;;;5078660;28;19981;-81
2022/01/04 10:45:48;;;;;;;;;;;5.80;99.90;;;;;;5080803;28;20390;-89
2022/01/04 10:48:15;;;;;;;;;;;5.70;99.90;;;;;;5080476;28;19916;-81
2022/01/04 10:50:42;;;;;;;;;;;5.60;99.90;;;;;;5096793;28;19955;-82
2022/01/04 10:53:14;;;;;;;;;;;5.50;99.90;;;;;;5079991;28;19963;-82
2022/01/04 10:55:39;;;;;;;;;;;5.50;99.90;;;;;;5078884;28;19935;-82
2022/01/04 10:58:05;;;;;;;;;;;5.50;99.90;;;;;;5080621;28;19924;-82
2022/01/04 11:00:31;;;;;;;;;;;5.50;99.90;;;;;;5079218;28;19920;-82
2022/01/04 11:02:58;;;;;;;;;;;5.50;99.90;;;;;;5079438;28;19927;-82
2022/01/04 11:05:24;;;;;;;;;;;5.70;99.90;;;;;;5080144;28;19920;-88
2022/01/04 11:07:55;;;;;;;;;;;5.50;99.90;;;;;;5080364;28;19920;-82
2022/01/04 11:10:21;;;;;;;;;;;5.30;99.90;;;;;;5083379;28;19971;-81
2022/01/04 11:12:48;;;;;;;;;;;5.20;99.90;;;;;;5080094;28;19947;-82
2022/01/04 11:15:13;;;;;;;;;;;5.00;99.90;;;;;;5077383;28;19921;-81
2022/01/04 11:17:39;;;;;;;;;;;4.90;99.90;;;;;;5076603;28;19974;-81
2022/01/04 11:20:04;;;;;;;;;;;4.80;99.90;;;;;;5058991;28;20014;-82
2022/01/04 11:22:30;;;;;;;;;;;4.80;99.90;;;;;;5078482;28;20374;-82
2022/01/04 11:24:56;;;;;;;;;;;4.70;99.90;;;;;;5092581;28;19920;-82
2022/01/04 11:27:21;;;;;;;;;;;4.80;99.90;;;;;;5079726;28;19921;-81
2022/01/04 11:29:48;;;;;;;;;;;5.00;99.90;;;;;;5076942;28;19978;-81
2022/01/04 11:32:16;;;;;;;;;;;5.00;99.90;;;;;;5060684;28;19927;-82
2022/01/04 11:35:00;;;;;;;;;;;5.10;99.90;;;;;;5078764;28;19921;-82
2022/01/04 11:37:25;;;;;;;;;;;5.10;99.90;;;;;;5079864;28;19924;-81
2022/01/04 11:39:52;;;;;;;;;;;5.20;99.90;;;;;;5079093;28;19928;-83
2022/01/04 11:42:37;;;;;;;;;;;5.20;99.90;;;;;;5078883;28;19924;-82
2022/01/04 11:45:06;;;;;;;;;;;5.30;99.90;;;;;;5078749;28;20272;-82
2022/01/04 11:47:32;;;;;;;;;;;5.40;99.90;;;;;;5080649;28;19920;-82
2022/01/04 11:50:16;;;;;;;;;;;5.50;99.90;;;;;;5080659;28;19924;-82
2022/01/04 11:52:43;;;;;;;;;;;5.60;99.90;;;;;;5082765;28;19920;-81
2022/01/04 11:55:21;;;;;;;;;;;5.70;99.90;;;;;;5084026;28;19920;-82
2022/01/04 11:57:48;;;;;;;;;;;5.70;99.90;;;;;;5084174;28;19920;-83
2022/01/04 12:00:23;;;;;;;;;;;5.70;99.90;;;;;;5085400;28;19920;-82
2022/01/04 12:03:01;;;;;;;;;;;5.70;99.90;;;;;;5085013;28;19939;-83
2022/01/04 12:05:26;;;;;;;;;;;5.80;99.90;;;;;;5084098;28;19920;-82
2022/01/04 12:07:52;;;;;;;;;;;5.90;99.90;;;;;;5081663;28;19927;-88
2022/01/04 12:10:18;;;;;;;;;;;5.90;99.90;;;;;;5083557;28;19921;-82
2022/01/04 12:12:53;;;;;;;;;;;5.90;99.90;;;;;;5085964;28;20317;-84
2022/01/04 12:15:34;;;;;;;;;;;5.80;99.90;;;;;;5081721;28;19924;-88
2022/01/04 12:17:59;;;;;;;;;;;5.90;99.90;;;;;;5081457;28;20259;-82
2022/01/04 12:20:43;;;;;;;;;;;6.00;99.90;;;;;;5080880;28;19943;-88
2022/01/04 12:23:31;;;;;;;;;;;5.80;99.90;;;;;;5078947;28;19927;-81
2022/01/04 12:26:02;;;;;;;;;;;5.80;99.90;;;;;;5079232;28;20275;-86
2022/01/04 12:28:29;;;;;;;;;;;5.70;99.90;;;;;;5079975;28;19920;-82
2022/01/04 12:31:12;;;;;;;;;;;5.70;99.90;;;;;;5084045;28;19934;-88
2022/01/04 12:33:38;;;;;;;;;;;5.70;99.90;;;;;;5083137;28;19921;-82
2022/01/04 12:36:04;;;;;;;;;;;5.70;99.90;;;;;;5080153;28;19920;-82
2022/01/04 12:38:32;;;;;;;;;;;5.70;99.90;;;;;;5080642;28;19973;-82
2022/01/04 12:40:58;;;;;;;;;;;5.70;99.90;;;;;;5066524;28;19931;-82
2022/01/04 12:43:24;;;;;;;;;;;5.90;99.90;;;;;;5081857;28;19943;-82
2022/01/04 12:45:57;;;;;;;;;;;5.80;99.90;;;;;;5080547;28;19921;-82
2022/01/04 12:48:41;;;;;;;;;;;5.70;99.90;;;;;;5081981;28;19927;-83
2022/01/04 12:51:26;;;;;;;;;;;5.50;99.90;;;;;;5078063;28;19948;-88
2022/01/04 12:53:53;;;;;;;;;;;5.40;99.90;;;;;;5061006;28;20028;-88
2022/01/04 12:56:18;;;;;;;;;;;5.40;99.90;;;;;;5080266;28;19975;-82
2022/01/04 12:58:44;;;;;;;;;;;5.30;99.90;;;;;;5080278;28;19921;-89
2022/01/04 13:01:12;;;;;;;;;;;5.30;99.90;;;;;;5080705;28;19927;-82
2022/01/04 13:03:39;;;;;;;;;;;5.30;99.90;;;;;;5081885;28;19924;-82
2022/01/04 13:06:05;;;;;;;;;;;5.30;99.90;;;;;;5080470;28;20298;-82
2022/01/04 13:08:31;;;;;;;;;;;5.40;99.90;;;;;;5097205;28;19927;-82
2022/01/04 13:11:02;;;;;;;;;;;5.40;99.90;;;;;;5081204;28;19921;-89
2022/01/04 13:13:30;;;;;;;;;;;5.30;99.90;;;;;;5079461;28;19956;-82
2022/01/04 13:16:15;;;;;;;;;;;5.30;99.90;;;;;;5077857;28;20013;-82
2022/01/04 13:18:41;;;;;;;;;;;5.30;99.90;;;;;;5070158;28;19921;-82
2022/01/04 13:21:07;;;;;;;;;;;5.40;99.90;;;;;;5077689;28;20291;-82
2022/01/04 13:23:39;;;;;;;;;;;5.40;99.90;;;;;;5079127;28;19924;-82
2022/01/04 13:26:05;;;;;;;;;;;5.40;99.90;;;;;;5081193;28;19925;-82
2022/01/04 13:28:30;;;;;;;;;;;5.40;99.90;;;;;;5078588;28;19926;-82
2022/01/04 13:30:56;;;;;;;;;;;5.50;99.90;;;;;;5078032;28;20290;-82
2022/01/04 13:33:22;;;;;;;;;;;5.50;99.90;;;;;;5078438;28;20010;-88
2022/01/04 13:35:48;;;;;;;;;;;5.50;99.90;;;;;;5076788;28;19988;-82
2022/01/04 13:38:17;;;;;;;;;;;5.70;99.90;;;;;;5077906;28;19920;-82
2022/01/04 13:40:44;;;;;;;;;;;6.00;99.90;;;;;;5095351;28;19920;-82
2022/01/04 13:43:11;;;;;;;;;;;6.20;99.90;;;;;;5079568;28;19927;-82
2022/01/04 13:45:43;;;;;;;;;;;6.30;99.90;;;;;;5078102;28;19920;-82
2022/01/04 13:48:09;;;;;;;;;;;6.20;99.90;;;;;;5079820;28;20289;-82
2022/01/04 13:50:36;;;;;;;;;;;6.20;99.90;;;;;;5078436;28;19960;-82
2022/01/04 13:53:10;;;;;;;;;;;6.10;99.90;;;;;;5077306;28;19981;-82
2022/01/04 13:55:45;;;;;;;;;;;6.10;99.90;;;;;;5078616;28;20023;-82
2022/01/04 13:58:11;;;;;;;;;;;6.00;99.90;;;;;;5078043;28;19921;-82
2022/01/04 14:00:38;;;;;;;;;;;5.90;99.90;;;;;;5080813;28;19952;-81
2022/01/04 14:03:22;;;;;;;;;;;5.80;99.90;;;;;;5076493;28;20019;-82
2022/01/04 14:05:47;;;;;;;;;;;5.70;99.90;;;;;;5077934;28;19924;-81
2022/01/04 14:08:13;;;;;;;;;;;5.60;99.90;;;;;;5078287;28;20255;-81
2022/01/04 14:10:48;;;;;;;;;;;5.50;99.90;;;;;;5079161;28;19924;-82
2022/01/04 14:13:27;;;;;;;;;;;5.40;99.90;;;;;;5093100;28;19943;-81
2022/01/04 14:16:05;;;;;;;;;;;5.40;99.90;;;;;;5079694;28;19975;-82
2022/01/04 14:18:31;;;;;;;;;;;5.40;99.90;;;;;;5078769;28;19950;-88
2022/01/04 14:20:56;;;;;;;;;;;5.50;99.90;;;;;;5076209;28;19927;-82
2022/01/04 14:23:32;;;;;;;;;;;5.50;99.90;;;;;;5077422;28;19920;-81
2022/01/04 14:26:07;;;;;;;;;;;5.50;99.90;;;;;;5094135;28;20264;-84
2022/01/04 14:28:32;;;;;;;;;;;5.50;99.90;;;;;;5095460;28;19957;-82
2022/01/04 14:30:58;;;;;;;;;;;5.40;99.90;;;;;;5080958;28;19921;-82
2022/01/04 14:33:24;;;;;;;;;;;5.30;99.90;;;;;;5081822;28;20007;-88
2022/01/04 14:35:50;;;;;;;;;;;5.20;99.90;;;;;;5093715;28;19904;-84
2022/01/04 14:38:16;;;;;;;;;;;5.10;99.90;;;;;;5098122;28;19936;-82
2022/01/04 14:40:43;;;;;;;;;;;5.00;99.90;;;;;;5085851;28;20401;-88
2022/01/04 14:43:09;;;;;;;;;;;5.10;99.90;;;;;;5081752;28;20002;-81
2022/01/04 14:45:35;;;;;;;;;;;4.90;99.90;;;;;;5080302;28;20393;-81